• Join FlightAware (Why Join?)
  • Login
  • US Flag 
10:41AM EDT


 

Airport Tracker/Info


-or-


 

Live Flight TrackerFlight Track Log ✈ SKW6313 ✈ 29-Jul-2013 ✈ KSFO - KPDX

Flight Track Log - Related Links

Times and Time Zones

All times are in EDT time to prevent confusion due to time zone crossing. See the SKW6313 flight status page for this flight to view local times or setup timezone preferences in your user account.

Time Position Orientation Groundspeed Altitude Reporting Facility
EDT Latitude Longitude Course Direction KTS MPH feet Rate Location/Type
11:58AM 37.6500 -122.3500 North 166 191 1,400  Level Northern Cal TRACON
11:59AM 37.6833 -122.3000 50° Northeast 212 244 3,300 1,800 Climbing Northern Cal TRACON
12:01PM 37.6448 -122.4452 120° Southeast  Level FlightAware Approximate
12:01PM 37.8106 -122.2872 North 275 316 6,500  Level Oakland Center
12:02PM 37.6695 -122.3608 North  Level FlightAware Approximate
12:02PM 37.8914 -122.2861 North 289 333 8,800  Level Oakland Center
12:03PM 37.7920 -122.3500 North  Level FlightAware Approximate
12:03PM 37.9917 -122.2825 North 301 346 11,200  Level Oakland Center
12:04PM 38.0825 -122.2817 360° North 326 375 12,700 1,560 Climbing Oakland Center
12:05PM 38.1750 -122.2792 North 335 386 14,500 1,560 Climbing Oakland Center
12:06PM 38.2706 -122.2769 North 345 397 16,000 1,380 Climbing Oakland Center
12:07PM 38.3689 -122.2750 North 354 407 17,400 1,320 Climbing Oakland Center
12:08PM 38.4686 -122.2731 North 358 412 18,800 1,260 Climbing Oakland Center
12:09PM 38.5694 -122.2703 North 362 417 20,000 1,200 Climbing Oakland Center
12:10PM 38.6858 -122.2681 North 369 425 21,300 1,080 Climbing Oakland Center
12:11PM 38.7942 -122.2694 359° North 383 441 22,200 840 Climbing Oakland Center
12:12PM 38.9033 -122.2786 356° North 391 450 23,100 840 Climbing Oakland Center
12:13PM 39.0139 -122.2883 356° North 396 456 24,000 840 Climbing Oakland Center
12:14PM 39.1253 -122.2964 357° North 399 459 24,900 840 Climbing Oakland Center
12:15PM 39.2372 -122.3067 356° North 401 461 25,800 780 Climbing Oakland Center
12:16PM 39.3506 -122.3161 356° North 405 466 26,600 660 Climbing Oakland Center
12:17PM 39.4875 -122.3278 356° North 410 472 27,200 480 Climbing Oakland Center
12:18PM 39.5900 -122.3361 356° North 418 481 27,700 480 Climbing Oakland Center
12:19PM 39.7078 -122.3461 356° North 423 487 28,200 540 Climbing Oakland Center
12:20PM 39.8506 -122.3578 356° North 428 493 28,800 480 Climbing Oakland Center
12:21PM 39.9708 -122.3692 356° North 433 498 29,300 480 Climbing Oakland Center
12:22PM 40.0919 -122.3822 355° North 433 498 29,800 420 Climbing Oakland Center
12:23PM 40.1983 -122.3897 357° North 442 509 30,200 480 Climbing Oakland Center
12:24PM 40.3456 -122.4011 357° North 440 506 30,900 540 Climbing Oakland Center
12:25PM 40.4664 -122.4114 356° North 437 503 31,400 480 Climbing Oakland Center
12:27PM 40.5867 -122.4222 356° North 435 501 31,900 240 Climbing Oakland Center
12:28PM 40.7069 -122.4336 356° North 434 499 32,000  Climbing Oakland Center
12:29PM 40.8306 -122.4442 356° North 446 513 32,000  Level Oakland Center
12:30PM 40.9567 -122.4544 356° North 455 524 32,000  Level Oakland Center
12:31PM 41.0833 -122.4656 356° North 458 527 32,000  Level Oakland Center
12:32PM 41.2111 -122.4775 356° North 461 531 32,000  Level Oakland Center
12:33PM 41.3383 -122.4897 356° North 462 532 32,000  Level Oakland Center
12:33PM 41.4394 -122.5003 356° North 455 524 32,000  Level Seattle Center
12:34PM 41.5656 -122.5111 356° North 456 525 32,000  Level Seattle Center
12:35PM 41.6736 -122.5219 356° North 457 526 32,000  Level Seattle Center
12:36PM 41.8239 -122.5358 356° North 454 522 32,000  Level Seattle Center
12:37PM 41.9506 -122.5486 356° North 456 525 32,000  Level Seattle Center
12:38PM 42.0731 -122.5547 358° North 448 516 32,000  Level Seattle Center
12:39PM 42.1983 -122.5683 355° North 454 522 32,000  Level Seattle Center
12:40PM 42.3278 -122.5769 357° North 463 533 32,000  Level Seattle Center
12:41PM 42.4531 -122.5878 356° North 457 526 32,000  Level Seattle Center
12:42PM 42.5781 -122.6008 356° North 456 525 32,000  Level Seattle Center
12:43PM 42.7019 -122.6125 356° North 451 519 32,000  Level Seattle Center
12:44PM 42.8311 -122.6278 355° North 443 510 32,000  Level Seattle Center
12:46PM 42.9550 -122.6386 356° North 446 513 32,000  Level Seattle Center
12:47PM 43.0817 -122.6483 357° North 455 524 32,000  Level Seattle Center
12:48PM 43.2069 -122.6586 357° North 453 521 32,000  Level Seattle Center
12:49PM 43.3561 -122.6736 356° North 450 518 32,000  Level Seattle Center
12:50PM 43.4797 -122.6853 356° North 447 514 32,000  Level Seattle Center
12:51PM 43.6039 -122.6983 356° North 446 513 32,000  Level Seattle Center
12:52PM 43.7269 -122.7100 356° North 446 513 32,000  Level Seattle Center
12:53PM 43.8519 -122.7222 356° North 450 518 32,000 -240 Level Seattle Center
12:54PM 43.9758 -122.7342 356° North 449 517 31,600 -1,620 Descending Seattle Center
12:55PM 44.1058 -122.7472 356° North 471 542 28,700 -2,880 Descending Seattle Center
12:56PM 44.2358 -122.7425 North 467 537 25,700 -3,180 Descending Seattle Center
12:57PM 44.3850 -122.7289 North 471 542 22,300 -3,000 Descending Seattle Center
12:58PM 44.5094 -122.7169 North 456 525 19,600 -2,640 Descending Seattle Center
12:59PM 44.6278 -122.7044 North 435 501 17,000 -2,760 Descending Seattle Center
12:59PM 44.6950 -122.6953 North 423 487 15,400 -2,580 Descending Seattle Center
01:00PM 44.7417 -122.6942 North 418 481 14,400 -2,400 Descending Seattle Center
01:00PM 44.8056 -122.6844 North 400 460 13,000 -2,040 Descending Seattle Center
01:01PM 44.8506 -122.6833 North 400 460 12,300 -1,920 Descending Seattle Center
01:01PM 44.9161 -122.6736 North 377 434 11,100 -1,680 Descending Seattle Center
01:02PM 44.9533 -122.6725 North 382 440 10,600 -1,140 Descending Seattle Center
01:02PM 45.0072 -122.6642 North 313 360 10,000 -1,140 Descending Seattle Center
01:03PM 45.0383 -122.6642 360° North 324 373 9,500 -1,620 Descending Seattle Center
01:03PM 45.0881 -122.6561 North 286 329 8,400 -2,100 Descending Seattle Center
01:04PM 45.1311 -122.6556 North 288 331 7,400 -1,920 Descending Seattle Center
01:04PM 45.1753 -122.6483 North 272 313 6,300 -1,500 Descending Seattle Center
01:05PM 45.2472 -122.6406 North 265 305 5,000 -720 Descending Seattle Center
01:06PM 45.3069 -122.6347 North 229 264 5,000  Level Seattle Center
01:08PM 45.3769 -122.6278 North 235 270 5,000  Level Seattle Center
01:09PM 45.4394 -122.6147 North 232 267 5,000  Level Seattle Center
01:10PM 45.4333 -122.5311 96° East 243 280 5,000  Level Seattle Center
01:11PM 45.4056 -122.4378 113° Southeast 242 278 5,000 -540 Level Seattle Center
01:12PM 45.4494 -122.3767 44° Northeast 232 267 4,000 -1,200 Descending Seattle Center
01:13PM 45.5067 -122.3592 12° North 221 254 2,600 -900 Descending Seattle Center
01:14PM 45.5286 -122.4242 296° West 164 189 2,300 -480 Descending Seattle Center
01:14PM 45.5411 -122.4572 298° West 179 206 1,900 -840 Descending Seattle Center
01:15PM 45.5481 -122.4778 296° West 151 174 1,500 -840 Descending Seattle Center
01:15PM 45.5594 -122.5067 299° West 161 185 1,100 -840 Descending Seattle Center
01:16PM 45.5697 -122.5306 302° West 137 158 700 -600 Descending Seattle Center
01:16PM 45.5808 -122.5586 300° West 152 175 500 -420 Descending Seattle Center